Time;durP1;ratioP1;P1;durP2;ratioP2;P2;SDS_P1;SDS_P2;PMS_P1;PMS_P2;Temp;Humidity;BMP_temperature;BMP_pressure;BME280_temperature;BME280_humidity;BME280_pressure;Samples;Min_cycle;Max_cycle;Signal;HPM_P1;HPM_P2
2021/10/04 00:02:08;;;;;;;36.88;19.57;;;;;;;5.33;87.13;100605.19;1732443;81;20945;-79
2021/10/04 00:04:35;;;;;;;33.33;18.62;;;;;;;5.31;87.45;100602.72;1735979;80;21801;-78
2021/10/04 00:07:05;;;;;;;31.23;19.05;;;;;;;5.31;87.45;100602.72;1732935;81;20971;-76
2021/10/04 00:09:33;;;;;;;34.48;19.62;;;;;;;5.37;87.57;100595.97;1731533;81;21036;-79
2021/10/04 00:12:00;;;;;;;32.60;19.02;;;;;;;5.37;87.57;100595.97;1727869;81;21029;-78
2021/10/04 00:14:29;;;;;;;34.00;18.73;;;;;;;5.39;87.88;100595.17;1733501;81;21083;-78
2021/10/04 00:16:57;;;;;;;32.67;19.12;;;;;;;5.42;87.99;100596.03;1742562;81;21035;-77
2021/10/04 00:19:25;;;;;;;30.80;18.98;;;;;;;5.45;88.09;100597.70;1723795;81;21058;-80
2021/10/04 00:21:54;;;;;;;29.42;17.80;;;;;;;5.49;88.16;100592.56;1749137;81;20975;-82
2021/10/04 00:24:21;;;;;;;29.32;18.52;;;;;;;5.50;88.05;100590.13;1734393;81;20938;-78
2021/10/04 00:26:47;;;;;;;32.40;18.77;;;;;;;5.52;88.02;100593.41;1728060;81;20940;-79
2021/10/04 00:29:14;;;;;;;34.10;18.42;;;;;;;5.55;87.97;100592.90;1742560;81;21154;-79
2021/10/04 00:31:41;;;;;;;37.00;17.92;;;;;;;5.59;87.93;100594.03;1734916;81;20923;-78
2021/10/04 00:34:08;;;;;;;37.98;20.52;;;;;;;5.62;87.74;100586.70;1727736;81;21081;-80
2021/10/04 00:36:34;;;;;;;31.55;18.35;;;;;;;5.65;87.44;100590.28;1735208;81;21554;-79
2021/10/04 00:39:01;;;;;;;33.13;17.30;;;;;;;5.68;87.50;100587.03;1735522;81;21012;-79
2021/10/04 00:41:28;;;;;;;30.30;16.75;;;;;;;5.72;87.39;100586.80;1733584;81;21172;-78
2021/10/04 00:43:56;;;;;;;30.85;16.40;;;;;;;5.77;87.12;100586.03;1735982;80;21021;-79
2021/10/04 00:46:26;;;;;;;27.30;17.60;;;;;;;5.80;87.10;100588.20;1727729;81;20957;-77
2021/10/04 00:48:53;;;;;;;29.50;16.57;;;;;;;5.82;87.03;100588.77;1730740;81;21569;-81
2021/10/04 00:51:21;;;;;;;27.48;17.23;;;;;;;5.86;87.03;100593.98;1738038;81;20993;-80
2021/10/04 00:53:51;;;;;;;34.53;18.07;;;;;;;5.89;87.16;100583.96;1706960;82;21127;-79
2021/10/04 00:56:17;;;;;;;26.82;16.05;;;;;;;5.89;86.61;100584.78;1735123;81;21578;-80
2021/10/04 00:58:44;;;;;;;26.27;16.30;;;;;;;5.89;86.50;100590.77;1731692;81;20991;-81
2021/10/04 01:01:11;;;;;;;27.75;16.20;;;;;;;5.90;86.40;100589.69;1734045;81;21666;-77
2021/10/04 01:03:37;;;;;;;27.85;16.82;;;;;;;5.93;86.37;100594.08;1742552;81;21066;-77
2021/10/04 01:06:04;;;;;;;28.90;15.93;;;;;;;5.93;86.16;100592.72;1750561;80;21211;-80
2021/10/04 01:08:31;;;;;;;29.92;16.90;;;;;;;5.95;86.15;100593.83;1742170;81;20955;-79
2021/10/04 01:10:58;;;;;;;25.95;15.60;;;;;;;5.98;86.21;100593.84;1719755;81;21215;-76
2021/10/04 01:13:25;;;;;;;28.50;16.93;;;;;;;5.98;86.14;100591.12;1732369;81;20992;-75
2021/10/04 01:15:51;;;;;;;25.70;15.48;;;;;;;5.99;86.16;100591.41;1734135;81;21040;-78
2021/10/04 01:18:18;;;;;;;27.07;15.88;;;;;;;5.98;86.11;100592.48;1736997;81;21129;-79
2021/10/04 01:20:45;;;;;;;25.70;15.38;;;;;;;5.95;85.97;100593.28;1736032;81;21070;-80
2021/10/04 01:23:12;;;;;;;25.88;16.97;;;;;;;5.98;86.12;100598.76;1733647;81;20982;-79
2021/10/04 01:25:39;;;;;;;27.98;15.43;;;;;;;5.98;86.18;100597.39;1734924;81;21440;-81
2021/10/04 01:28:06;;;;;;;29.27;16.05;;;;;;;5.99;86.04;100596.31;1747820;81;21006;-81
2021/10/04 01:30:32;;;;;;;29.52;16.17;;;;;;;5.99;85.88;100603.13;1730365;81;21189;-82
2021/10/04 01:32:59;;;;;;;28.10;16.75;;;;;;;6.00;85.66;100595.77;1726765;81;21470;-81
2021/10/04 01:35:27;;;;;;;24.70;15.10;;;;;;;6.00;85.27;100582.97;1736991;81;20905;-82
2021/10/04 01:37:54;;;;;;;28.80;16.00;;;;;;;5.98;84.96;100582.95;1746959;81;20899;-82
2021/10/04 01:40:20;;;;;;;25.32;15.00;;;;;;;5.99;84.46;100575.05;1728649;82;20882;-81
2021/10/04 01:42:49;;;;;;;28.23;15.63;;;;;;;6.01;84.29;100579.16;1727971;81;21784;-80
2021/10/04 01:45:20;;;;;;;27.98;15.58;;;;;;;6.04;83.93;100579.18;1725557;81;20999;-80
2021/10/04 01:47:47;;;;;;;25.45;14.83;;;;;;;6.07;83.82;100578.66;1748901;81;21012;-80
2021/10/04 01:50:14;;;;;;;26.62;15.00;;;;;;;6.08;83.52;100566.67;1732547;81;21560;-78
2021/10/04 01:52:40;;;;;;;39.13;14.95;;;;;;;6.12;83.10;100571.88;1752218;81;20911;-78
2021/10/04 01:55:08;;;;;;;25.08;13.53;;;;;;;6.14;82.79;100571.91;1727151;81;21080;-71
2021/10/04 01:57:37;;;;;;;29.95;13.98;;;;;;;6.18;82.45;100581.74;1732759;81;21003;-75
2021/10/04 02:00:10;;;;;;;30.70;14.13;;;;;;;6.21;81.96;100582.59;1727153;81;21525;-78
2021/10/04 02:02:41;;;;;;;25.60;14.07;;;;;;;6.24;81.78;100583.42;1735689;81;20862;-77
2021/10/04 02:05:09;;;;;;;22.48;13.78;;;;;;;6.28;81.64;100590.82;1728177;81;21134;-77
2021/10/04 02:07:37;;;;;;;25.02;13.20;;;;;;;6.31;81.55;100590.84;1737729;81;21519;-77
2021/10/04 02:10:08;;;;;;;21.42;13.38;;;;;;;6.29;81.74;100584.28;1728405;81;20946;-79
2021/10/04 02:12:35;;;;;;;25.62;13.38;;;;;;;6.26;81.65;100595.72;1736078;81;21578;-79
2021/10/04 02:15:03;;;;;;;24.15;13.13;;;;;;;6.24;81.59;100601.16;1731581;81;20922;-75
2021/10/04 02:17:32;;;;;;;25.48;14.30;;;;;;;6.22;81.75;100608.23;1735221;81;21421;-75
2021/10/04 02:19:59;;;;;;;28.62;13.38;;;;;;;6.23;81.69;100615.87;1738229;81;21193;-76
2021/10/04 02:22:26;;;;;;;26.20;14.28;;;;;;;6.21;81.43;100621.58;1718260;82;20966;-77
2021/10/04 02:24:52;;;;;;;24.98;13.68;;;;;;;6.17;81.18;100610.91;1724082;82;21056;-76
2021/10/04 02:27:19;;;;;;;26.00;15.32;;;;;;;6.10;81.15;100619.03;1718125;82;21464;-77
2021/10/04 02:29:46;;;;;;;27.93;14.05;;;;;;;6.06;81.18;100621.99;1733165;82;20945;-76
2021/10/04 02:32:12;;;;;;;29.70;16.12;;;;;;;6.03;81.05;100625.23;1730466;81;21212;-78
2021/10/04 02:34:39;;;;;;;27.10;14.60;;;;;;;5.96;80.97;100624.91;1735255;82;21039;-77
2021/10/04 02:37:06;;;;;;;35.00;16.40;;;;;;;5.94;81.25;100624.34;1731432;81;21532;-79
2021/10/04 02:39:33;;;;;;;32.42;13.88;;;;;;;5.92;81.27;100614.78;1741526;82;21088;-78
2021/10/04 02:42:00;;;;;;;21.00;12.65;;;;;;;5.89;81.33;100607.95;1714559;82;20966;-77
2021/10/04 02:44:27;;;;;;;24.07;13.10;;;;;;;5.90;81.31;100610.95;1742950;82;21242;-77
2021/10/04 02:46:54;;;;;;;22.60;13.95;;;;;;;5.93;81.14;100615.06;1721054;81;20969;-76
2021/10/04 02:49:21;;;;;;;26.75;13.18;;;;;;;5.97;81.19;100618.92;1732570;82;21049;-77
2021/10/04 02:51:47;;;;;;;19.30;13.20;;;;;;;5.97;80.97;100618.92;1734539;82;21045;-78
2021/10/04 02:54:14;;;;;;;22.87;13.08;;;;;;;6.00;81.08;100621.13;1726440;81;21077;-77
2021/10/04 02:56:41;;;;;;;20.65;12.55;;;;;;;5.99;81.02;100621.39;1736498;82;21484;-77
2021/10/04 02:59:08;;;;;;;23.22;13.03;;;;;;;5.98;80.95;100618.38;1718711;81;20969;-79
2021/10/04 03:01:35;;;;;;;26.33;12.98;;;;;;;5.96;81.01;100616.73;1728345;81;21089;-76
2021/10/04 03:04:03;;;;;;;25.00;13.98;;;;;;;5.94;80.97;100613.98;1718353;81;21686;-79
2021/10/04 03:06:30;;;;;;;25.92;13.30;;;;;;;5.93;80.86;100613.70;1741572;82;21452;-77
2021/10/04 03:08:58;;;;;;;26.35;13.28;;;;;;;5.92;80.95;100612.88;1740599;81;21121;-77
2021/10/04 03:11:25;;;;;;;26.02;13.08;;;;;;;5.91;81.19;100619.41;1730281;81;20962;-74
2021/10/04 03:13:52;;;;;;;27.25;14.87;;;;;;;5.90;81.33;100616.41;1742315;81;20883;-76
2021/10/04 03:16:20;;;;;;;22.55;13.58;;;;;;;5.89;81.48;100615.30;1732668;82;21073;-76
2021/10/04 03:18:46;;;;;;;23.65;12.60;;;;;;;5.88;81.67;100613.08;1732928;81;20981;-77
2021/10/04 03:21:13;;;;;;;29.12;14.23;;;;;;;5.89;81.69;100614.77;1716403;81;21784;-75
2021/10/04 03:23:40;;;;;;;22.07;13.28;;;;;;;5.90;81.52;100611.50;1721510;81;20942;-76
2021/10/04 03:26:07;;;;;;;23.15;13.00;;;;;;;5.91;81.61;100620.78;1731173;81;21104;-78
2021/10/04 03:28:33;;;;;;;27.98;13.65;;;;;;;5.91;81.66;100617.23;1727692;81;21457;-77
2021/10/04 03:31:00;;;;;;;23.00;12.45;;;;;;;5.94;81.72;100622.16;1736323;82;21012;-78
2021/10/04 03:33:26;;;;;;;21.55;13.30;;;;;;;5.94;81.61;100618.07;1734366;82;21489;-77
2021/10/04 03:35:53;;;;;;;22.73;13.40;;;;;;;5.95;81.48;100621.91;1731874;82;20909;-77
2021/10/04 03:38:19;;;;;;;26.15;13.28;;;;;;;5.95;81.48;100623.27;1731910;82;20921;-79
2021/10/04 03:40:46;;;;;;;30.48;13.78;;;;;;;5.94;81.45;100621.62;1715251;82;21030;-76
2021/10/04 03:43:12;;;;;;;27.00;14.13;;;;;;;5.92;81.56;100625.14;1735719;81;21554;-73
2021/10/04 03:45:40;;;;;;;23.07;14.53;;;;;;;5.90;81.39;100625.95;1748061;81;21827;-74
2021/10/04 03:48:07;;;;;;;26.80;14.00;;;;;;;5.90;81.24;100636.02;1727486;81;20933;-77
2021/10/04 03:50:33;;;;;;;26.17;15.00;;;;;;;5.88;81.45;100626.71;1742564;81;20999;-74
2021/10/04 03:53:01;;;;;;;32.70;16.07;;;;;;;5.87;81.34;100628.33;1738363;81;21016;-78
2021/10/04 03:55:27;;;;;;;29.75;17.50;;;;;;;5.84;81.40;100632.39;1730227;80;21536;-80
2021/10/04 03:57:54;;;;;;;31.23;17.12;;;;;;;5.82;81.54;100635.09;1697032;83;21175;-76
2021/10/04 04:00:22;;;;;;;24.82;15.90;;;;;;;5.81;81.68;100638.36;1701067;83;20969;-76
2021/10/04 04:02:49;;;;;;;27.45;16.10;;;;;;;5.81;82.16;100642.98;1704857;83;20980;-77
2021/10/04 04:05:17;;;;;;;26.42;17.52;;;;;;;5.81;81.77;100638.36;1701253;82;20969;-75
2021/10/04 04:07:44;;;;;;;30.45;18.15;;;;;;;5.83;81.79;100636.73;1723786;81;20943;-75
2021/10/04 04:10:12;;;;;;;25.55;15.85;;;;;;;5.83;81.70;100637.56;1726266;80;21099;-75
2021/10/04 04:12:40;;;;;;;29.45;18.82;;;;;;;5.82;81.92;100644.09;1740868;81;20887;-77
2021/10/04 04:15:07;;;;;;;29.25;18.05;;;;;;;5.81;81.68;100647.89;1727229;80;21119;-75
2021/10/04 04:17:34;;;;;;;35.60;18.67;;;;;;;5.80;81.96;100653.06;1735820;80;20975;-78
2021/10/04 04:20:01;;;;;;;34.83;19.10;;;;;;;5.80;81.87;100648.16;1748228;80;20854;-81
2021/10/04 04:22:28;;;;;;;35.45;20.00;;;;;;;5.81;82.03;100651.98;1720605;81;21130;-80
2021/10/04 04:24:56;;;;;;;42.53;19.17;;;;;;;5.82;82.11;100651.45;1744396;80;21515;-77
2021/10/04 04:27:24;;;;;;;31.17;19.32;;;;;;;5.81;82.00;100660.16;1716631;81;21116;-76
2021/10/04 04:29:51;;;;;;;35.80;18.48;;;;;;;5.80;81.89;100652.23;1761366;80;21569;-76
2021/10/04 04:32:18;;;;;;;31.82;18.12;;;;;;;5.82;82.07;100657.72;1760804;80;21562;-79
2021/10/04 04:34:44;;;;;;;31.25;18.77;;;;;;;5.85;82.22;100662.66;1760421;80;21208;-78
2021/10/04 04:37:12;;;;;;;30.08;17.17;;;;;;;5.86;82.27;100669.75;1744511;80;21021;-80
2021/10/04 04:39:39;;;;;;;31.80;17.37;;;;;;;5.87;82.27;100667.30;1747193;79;21082;-78
2021/10/04 04:42:07;;;;;;;32.98;19.37;;;;;;;5.89;82.37;100658.37;1720770;82;20918;-78
2021/10/04 04:44:34;;;;;;;40.65;20.77;;;;;;;5.90;82.49;100663.28;1719776;81;21092;-78
2021/10/04 04:47:02;;;;;;;33.67;18.48;;;;;;;5.92;82.46;100660.58;1714479;81;21177;-77
2021/10/04 04:49:29;;;;;;;34.92;19.55;;;;;;;5.94;82.57;100658.95;1717149;81;21567;-78
2021/10/04 04:51:58;;;;;;;32.70;18.98;;;;;;;5.97;82.58;100658.44;1733151;78;21023;-80
2021/10/04 04:54:25;;;;;;;32.23;16.48;;;;;;;6.00;82.26;100662.55;1727773;82;21951;-78
2021/10/04 04:56:54;;;;;;;34.35;17.27;;;;;;;6.06;82.35;100662.34;1740663;81;21523;-80
2021/10/04 04:59:22;;;;;;;35.10;17.92;;;;;;;6.13;82.37;100668.41;1705334;82;21147;-80
2021/10/04 05:01:50;;;;;;;31.25;16.67;;;;;;;6.22;82.42;100669.58;1704615;81;20881;-77
2021/10/04 05:04:17;;;;;;;26.45;15.75;;;;;;;6.29;82.13;100669.36;1750939;79;20936;-79
2021/10/04 05:06:44;;;;;;;29.70;16.60;;;;;;;6.39;81.58;100669.42;1704692;82;21036;-77
2021/10/04 05:09:11;;;;;;;26.30;14.55;;;;;;;6.48;81.92;100667.03;1729977;81;21052;-77
2021/10/04 05:11:39;;;;;;;27.87;15.48;;;;;;;6.57;81.42;100670.38;1715698;82;21877;-79
2021/10/04 05:14:07;;;;;;;30.57;15.23;;;;;;;6.68;81.01;100663.63;1752968;80;21022;-81
2021/10/04 05:16:33;;;;;;;24.80;15.58;;;;;;;6.74;80.99;100660.67;1740474;80;20968;-80
2021/10/04 05:19:00;;;;;;;28.70;15.88;;;;;;;6.82;80.87;100656.09;1737719;80;21073;-75
2021/10/04 05:21:27;;;;;;;30.70;15.53;;;;;;;6.92;80.43;100656.14;1730244;81;21841;-75
2021/10/04 05:23:53;;;;;;;25.45;15.83;;;;;;;7.00;80.28;100642.51;1721986;82;23292;-76
2021/10/04 05:26:20;;;;;;;25.72;17.55;;;;;;;7.07;79.95;100644.45;1736862;81;20919;-76
2021/10/04 05:28:47;;;;;;;27.37;16.90;;;;;;;7.11;79.86;100658.39;1737055;81;21055;-75
2021/10/04 05:31:13;;;;;;;27.93;15.85;;;;;;;7.16;79.70;100668.80;1736574;82;20868;-73
2021/10/04 05:33:40;;;;;;;27.37;17.30;;;;;;;7.20;79.15;100674.01;1710129;81;20900;-74
2021/10/04 05:36:07;;;;;;;24.82;15.10;;;;;;;7.24;79.07;100676.48;1734082;82;21144;-76
2021/10/04 05:38:34;;;;;;;29.80;15.35;;;;;;;7.27;79.10;100673.77;1726139;81;21109;-81
2021/10/04 05:41:00;;;;;;;25.05;14.60;;;;;;;7.34;79.32;100678.44;1742163;81;21534;-78
2021/10/04 05:43:27;;;;;;;25.50;15.48;;;;;;;7.38;78.88;100685.56;1722959;81;21123;-81
2021/10/04 05:45:54;;;;;;;31.27;14.58;;;;;;;7.42;78.93;100682.58;1696305;83;21049;-77
2021/10/04 05:48:21;;;;;;;26.05;14.80;;;;;;;7.47;78.78;100678.50;1698234;83;21779;-81
2021/10/04 05:50:49;;;;;;;20.27;12.63;;;;;;;7.50;78.31;100667.03;1707317;83;21607;-79
2021/10/04 05:53:17;;;;;;;24.32;14.23;;;;;;;7.54;78.48;100668.93;1706069;83;21488;-78
2021/10/04 05:55:46;;;;;;;29.82;14.05;;;;;;;7.62;78.29;100673.06;1684059;83;21757;-79
2021/10/04 05:58:13;;;;;;;21.80;13.22;;;;;;;7.69;78.04;100678.27;1695290;83;21020;-79
2021/10/04 06:00:39;;;;;;;24.98;12.20;;;;;;;7.75;77.62;100674.46;1712596;83;21209;-79
2021/10/04 06:03:06;;;;;;;23.92;12.55;;;;;;;7.80;77.88;100672.56;1689537;83;21563;-78
2021/10/04 06:05:33;;;;;;;22.40;12.95;;;;;;;7.88;77.47;100673.95;1695403;83;21148;-79
2021/10/04 06:08:01;;;;;;;19.30;11.40;;;;;;;7.95;77.53;100678.61;1696941;83;21103;-78
2021/10/04 06:10:29;;;;;;;26.40;12.70;;;;;;;8.06;77.47;100676.17;1699146;83;20996;-79
2021/10/04 06:12:58;;;;;;;15.72;11.48;;;;;;;8.16;76.80;100682.16;1697905;82;20924;-79
2021/10/04 06:15:26;;;;;;;21.30;13.05;;;;;;;8.22;76.45;100679.16;1729177;83;21027;-79
2021/10/04 06:17:53;;;;;;;37.00;13.85;;;;;;;8.31;76.68;100686.28;1707395;82;21072;-77
2021/10/04 06:20:19;;;;;;;22.90;12.55;;;;;;;8.44;76.45;100691.25;1697498;83;21228;-78
2021/10/04 06:22:46;;;;;;;26.10;12.30;;;;;;;8.56;75.51;100684.13;1705142;83;20972;-79
2021/10/04 06:25:14;;;;;;;20.20;11.50;;;;;;;8.66;75.41;100684.13;1713587;81;21128;-78
2021/10/04 06:27:44;;;;;;;20.45;10.93;;;;;;;8.77;74.95;100679.42;1744532;81;20996;-78
2021/10/04 06:30:13;;;;;;;24.98;12.50;;;;;;;8.87;75.11;100678.05;1748597;82;20882;-79
2021/10/04 06:32:40;;;;;;;22.60;13.30;;;;;;;9.01;74.51;100683.77;1724831;82;20985;-79
2021/10/04 06:35:08;;;;;;;22.52;11.85;;;;;;;9.11;73.52;100677.72;1731587;81;21049;-79
2021/10/04 06:37:36;;;;;;;18.75;11.12;;;;;;;9.21;72.60;100676.86;1728171;80;21167;-79
2021/10/04 06:40:05;;;;;;;21.25;10.55;;;;;;;9.33;73.25;100677.34;1717971;81;20962;-76
2021/10/04 06:42:34;;;;;;;20.50;11.18;;;;;;;9.49;72.05;100673.98;1695397;82;20890;-76
2021/10/04 06:45:01;;;;;;;19.27;10.68;;;;;;;9.61;71.36;100671.73;1740080;82;20969;-77
2021/10/04 06:47:28;;;;;;;14.23;9.08;;;;;;;9.75;69.37;100671.39;1715400;81;20910;-77
2021/10/04 06:49:55;;;;;;;17.62;8.48;;;;;;;9.89;69.08;100668.27;1723869;81;21113;-77
2021/10/04 06:52:23;;;;;;;14.60;9.10;;;;;;;10.08;67.45;100678.02;1735155;81;20898;-77
2021/10/04 06:54:50;;;;;;;19.75;8.95;;;;;;;10.30;66.08;100685.03;1737442;81;20965;-78
2021/10/04 06:57:19;;;;;;;14.80;8.03;;;;;;;10.54;66.86;100683.16;1742563;81;20992;-75
2021/10/04 06:59:46;;;;;;;14.70;8.45;;;;;;;10.84;63.96;100685.63;1728555;81;20989;-76
2021/10/04 07:02:13;;;;;;;12.20;7.90;;;;;;;11.06;62.34;100685.11;1739295;81;21143;-78
2021/10/04 07:04:41;;;;;;;13.00;7.37;;;;;;;11.27;63.70;100690.38;1734041;81;21420;-78
2021/10/04 07:07:08;;;;;;;15.38;9.65;;;;;;;11.48;62.28;100682.16;1740051;81;21483;-77
2021/10/04 07:09:35;;;;;;;19.87;7.87;;;;;;;11.71;61.42;100681.83;1746364;81;21004;-76
2021/10/04 07:12:03;;;;;;;15.30;9.25;;;;;;;11.93;59.24;100677.98;1735147;81;21100;-76
2021/10/04 07:14:30;;;;;;;17.85;7.58;;;;;;;12.20;59.16;100681.41;1731922;81;21573;-77
2021/10/04 07:16:57;;;;;;;16.52;7.92;;;;;;;12.61;58.74;100678.00;1723891;81;20912;-76
2021/10/04 07:19:24;;;;;;;11.75;8.38;;;;;;;12.93;57.96;100676.56;1731226;81;21031;-77
2021/10/04 07:21:53;;;;;;;20.57;13.22;;;;;;;13.29;56.45;100679.46;1726062;81;21062;-78
2021/10/04 07:24:20;;;;;;;15.75;8.83;;;;;;;13.71;53.72;100672.80;1730854;81;21060;-78
2021/10/04 07:26:49;;;;;;;13.83;8.30;;;;;;;14.08;52.88;100678.56;1743739;80;22967;-75
2021/10/04 07:29:16;;;;;;;14.23;8.03;;;;;;;14.32;51.37;100672.75;1724523;82;20930;-75
2021/10/04 07:31:44;;;;;;;20.37;10.85;;;;;;;14.49;50.88;100677.02;1696474;81;20949;-75
2021/10/04 07:34:11;;;;;;;14.00;9.25;;;;;;;14.76;52.21;100673.30;1703108;81;21004;-77
2021/10/04 07:36:39;;;;;;;16.70;10.53;;;;;;;15.16;49.00;100671.37;1744326;80;21163;-78
2021/10/04 07:39:08;;;;;;;16.17;10.32;;;;;;;15.58;49.10;100669.10;1758435;80;21139;-78
2021/10/04 07:41:36;;;;;;;12.53;8.00;;;;;;;16.09;47.37;100676.65;1757269;80;21507;-83
2021/10/04 07:44:03;;;;;;;12.73;8.38;;;;;;;16.62;45.00;100673.25;1764376;80;20961;-81
2021/10/04 07:46:31;;;;;;;12.43;7.58;;;;;;;16.87;44.00;100668.80;1769812;80;20924;-78
2021/10/04 07:48:58;;;;;;;21.97;10.98;;;;;;;17.05;42.65;100675.35;1757781;80;20994;-79
2021/10/04 07:51:25;;;;;;;18.80;8.35;;;;;;;17.10;42.32;100669.62;1765652;80;21781;-75
2021/10/04 07:53:52;;;;;;;10.08;6.03;;;;;;;17.24;43.05;100671.37;1754501;80;21102;-80
2021/10/04 07:56:19;;;;;;;12.13;6.10;;;;;;;17.66;43.44;100671.73;1731846;80;20983;-76
2021/10/04 07:58:47;;;;;;;10.48;7.53;;;;;;;18.18;40.13;100667.17;1728400;80;21003;-75
2021/10/04 08:01:14;;;;;;;11.40;5.22;;;;;;;18.35;38.24;100669.80;1720805;81;21010;-76
2021/10/04 08:03:40;;;;;;;12.93;6.08;;;;;;;18.41;37.90;100667.63;1720034;81;21774;-80
2021/10/04 08:06:08;;;;;;;46.90;24.63;;;;;;;18.44;36.30;100674.71;1736418;81;21024;-76
2021/10/04 08:08:36;;;;;;;28.15;9.05;;;;;;;18.51;37.29;100662.19;1724090;81;21032;-85
2021/10/04 08:11:05;;;;;;;34.55;16.00;;;;;;;18.67;35.39;100660.43;1710868;82;20898;-79
2021/10/04 08:13:31;;;;;;;13.03;7.12;;;;;;;18.59;35.77;100656.55;1740184;81;20917;-81
2021/10/04 08:16:00;;;;;;;12.85;5.03;;;;;;;18.60;35.28;100659.59;1741284;81;21121;-79
2021/10/04 08:18:31;;;;;;;12.37;5.25;;;;;;;18.63;35.56;100664.47;1728376;81;20980;-76
2021/10/04 08:20:58;;;;;;;15.93;9.90;;;;;;;18.74;36.01;100669.03;1724486;81;20990;-80
2021/10/04 08:23:25;;;;;;;7.70;3.40;;;;;;;18.83;34.76;100669.75;1723012;81;21070;-79
2021/10/04 08:25:52;;;;;;;6.65;3.00;;;;;;;18.91;33.57;100670.23;1718638;81;21135;-79
2021/10/04 08:28:18;;;;;;;4.50;2.50;;;;;;;18.97;34.29;100666.66;1737770;81;21147;-76
2021/10/04 08:30:46;;;;;;;3.95;2.42;;;;;;;19.21;34.30;100673.63;1716475;81;21555;-74
2021/10/04 08:33:13;;;;;;;4.22;2.27;;;;;;;19.45;33.43;100663.89;1726264;81;21045;-74
2021/10/04 08:35:42;;;;;;;6.40;2.30;;;;;;;19.51;33.89;100672.86;1732144;81;20942;-76
2021/10/04 08:38:08;;;;;;;5.95;2.27;;;;;;;19.57;32.76;100672.05;1730639;81;20977;-76
2021/10/04 08:40:37;;;;;;;3.33;2.58;;;;;;;19.46;31.94;100669.69;1709446;82;21523;-76
2021/10/04 08:43:04;;;;;;;3.20;2.08;;;;;;;19.20;32.60;100676.17;1730592;82;21667;-77
2021/10/04 08:45:31;;;;;;;7.65;2.77;;;;;;;18.96;33.07;100674.19;1687516;81;22046;-75
2021/10/04 08:47:59;;;;;;;6.28;2.90;;;;;;;18.91;33.98;100673.02;1738343;81;21980;-77
2021/10/04 08:50:28;;;;;;;6.75;2.25;;;;;;;19.07;32.57;100672.56;1696142;82;21591;-74
2021/10/04 08:52:57;;;;;;;5.58;2.40;;;;;;;18.95;32.57;100675.34;1671836;84;21090;-76
2021/10/04 08:55:25;;;;;;;3.17;2.35;;;;;;;18.90;34.00;100676.14;1642497;85;21412;-75
2021/10/04 08:57:51;;;;;;;6.33;2.80;;;;;;;19.07;33.36;100675.92;1674704;84;21004;-76
2021/10/04 09:00:19;;;;;;;5.45;2.87;;;;;;;19.06;32.53;100679.89;1667287;84;21061;-76
2021/10/04 09:02:48;;;;;;;6.35;2.65;;;;;;;19.00;33.57;100671.53;1724293;83;20984;-77
2021/10/04 09:05:27;;;;;;;8.85;2.90;;;;;;;19.11;32.47;100679.05;1678263;83;21049;-75
2021/10/04 09:08:00;;;;;;;19.20;2.83;;;;;;;19.18;32.64;100670.72;1714488;83;20892;-76
2021/10/04 09:10:29;;;;;;;8.08;3.55;;;;;;;19.26;32.80;100675.36;1699522;83;21098;-76
2021/10/04 09:13:01;;;;;;;3.92;2.35;;;;;;;19.31;31.21;100686.27;1704589;83;21031;-74
2021/10/04 09:15:44;;;;;;;;;;;;;;;19.26;31.69;100683.14;1705881;82;20997;-80
2021/10/04 09:18:29;;;;;;;6.97;2.60;;;;;;;19.26;31.72;100682.33;1727781;81;21123;-80
2021/10/04 09:21:09;;;;;;;7.00;2.62;;;;;;;19.17;31.87;100691.36;1731137;81;21474;-83
2021/10/04 09:23:48;;;;;;;6.00;2.70;;;;;;;19.12;32.51;100686.25;1730824;81;21463;-82
2021/10/04 09:26:33;;;;;;;5.25;3.00;;;;;;;19.13;31.78;100688.45;1703770;81;20959;-74
2021/10/04 09:29:10;;;;;;;6.60;2.58;;;;;;;19.02;32.45;100685.91;1740242;81;20844;-75
2021/10/04 09:31:41;;;;;;;6.58;3.10;;;;;;;19.04;32.14;100677.45;1729335;81;21152;-76
2021/10/04 09:34:16;;;;;;;7.95;2.92;;;;;;;19.13;32.95;100683.70;1724984;82;20981;-72
2021/10/04 09:36:57;;;;;;;4.37;2.87;;;;;;;19.25;33.03;100674.55;1731511;81;20898;-79
2021/10/04 09:39:33;;;;;;;8.15;2.70;;;;;;;19.34;31.81;100675.26;1723174;82;20948;-81
2021/10/04 09:42:13;;;;;;;3.80;2.77;;;;;;;19.23;33.28;100678.84;1724337;81;21077;-80
2021/10/04 09:44:54;;;;;;;10.13;2.77;;;;;;;19.25;33.76;100669.56;1723221;81;21122;-81
2021/10/04 09:47:38;;;;;;;6.50;2.65;;;;;;;19.35;32.21;100670.50;1723303;81;21505;-80
2021/10/04 09:50:10;;;;;;;4.47;2.90;;;;;;;19.25;32.32;100666.78;1730667;81;20984;-77
2021/10/04 09:52:52;;;;;;;4.08;2.85;;;;;;;19.14;33.24;100664.45;1730697;81;21548;-82
2021/10/04 09:55:29;;;;;;;3.92;2.52;;;;;;;19.22;33.21;100654.95;1737849;81;20925;-81
2021/10/04 09:58:16;;;;;;;6.97;2.92;;;;;;;19.37;30.95;100654.27;1739123;81;21673;-81
2021/10/04 10:00:51;;;;;;;7.67;2.70;;;;;;;19.41;31.92;100656.58;1724903;81;20889;-81
2021/10/04 10:03:21;;;;;;;9.65;2.83;;;;;;;19.42;32.29;100649.85;1746868;81;20929;-81
2021/10/04 10:05:53;;;;;;;4.83;2.60;;;;;;;19.57;31.13;100645.59;1737613;81;20945;-80
2021/10/04 10:08:22;;;;;;;7.65;3.20;;;;;;;19.70;30.69;100642.41;1730551;82;21028;-80
2021/10/04 10:10:50;;;;;;;7.87;2.50;;;;;;;19.68;30.31;100646.13;1717127;81;22152;-79
2021/10/04 10:13:21;;;;;;;4.00;2.70;;;;;;;19.54;30.45;100640.71;1740395;81;20937;-81
2021/10/04 10:16:08;;;;;;;5.87;3.05;;;;;;;19.29;30.48;100628.73;1740739;81;21499;-80
2021/10/04 10:18:46;;;;;;;87.12;8.18;;;;;;;19.35;33.01;100632.91;1740589;81;20986;-81
2021/10/04 10:21:26;;;;;;;6.37;3.00;;;;;;;19.62;30.96;100628.64;1734546;81;22535;-80
2021/10/04 10:23:55;;;;;;;6.03;3.58;;;;;;;19.73;30.79;100627.78;1719332;82;21206;-80
2021/10/04 10:26:52;;;;;;;6.03;3.25;;;;;;;19.89;31.46;100627.05;1736246;81;21502;-80
2021/10/04 10:29:24;;;;;;;8.73;3.77;;;;;;;19.92;30.84;100634.13;1734005;81;20885;-75
2021/10/04 10:31:56;;;;;;;7.12;3.70;;;;;;;19.77;30.44;100628.70;1738820;80;22262;-75
2021/10/04 10:34:36;;;;;;;;;;;;;;;19.85;31.41;100634.49;1744545;80;21030;-79
2021/10/04 10:37:18;;;;;;;4.47;3.10;;;;;;;19.96;30.02;100628.08;1696225;83;21164;-80
2021/10/04 10:39:56;;;;;;;9.95;3.08;;;;;;;20.05;30.08;100626.55;1711327;83;20964;-78
2021/10/04 10:42:36;;;;;;;8.33;3.40;;;;;;;19.98;29.65;100624.94;1721265;81;20962;-78
2021/10/04 10:45:09;;;;;;;4.17;2.75;;;;;;;19.88;28.98;100622.64;1719201;81;21111;-78
2021/10/04 10:47:43;;;;;;;6.50;3.00;;;;;;;19.80;29.07;100618.83;1733733;81;21026;-78
2021/10/04 10:50:14;;;;;;;;;;;;;;;19.87;29.39;100611.27;1741919;81;22130;-77
2021/10/04 10:52:59;;;;;;;68.35;42.15;;;;;;;19.97;29.32;100607.41;1733821;82;20106;-77
2021/10/04 10:55:36;;;;;;;8.45;4.95;;;;;;;19.95;29.00;100609.73;1730994;81;20977;-78
2021/10/04 10:58:14;;;;;;;26.12;12.47;;;;;;;20.08;29.28;100603.54;1717275;82;21255;-80
2021/10/04 11:00:52;;;;;;;11.00;5.10;;;;;;;20.15;28.79;100605.14;1716721;81;20934;-80
2021/10/04 11:03:22;;;;;;;20.48;10.05;;;;;;;20.25;28.55;100606.58;1728929;82;21204;-80
2021/10/04 11:06:02;;;;;;;9.05;3.60;;;;;;;20.46;28.16;100601.63;1704618;82;21056;-79
2021/10/04 11:08:45;;;;;;;17.15;9.15;;;;;;;20.41;28.65;100608.86;1664540;84;21035;-77
2021/10/04 11:11:20;;;;;;;54.33;24.75;;;;;;;20.29;28.17;100607.49;1724519;82;20918;-74
2021/10/04 11:14:07;;;;;;;18.80;8.95;;;;;;;20.26;27.78;100604.83;1696622;83;21074;-80
2021/10/04 11:16:42;;;;;;;7.10;4.10;;;;;;;20.23;27.49;100607.52;1671340;82;21180;-79
2021/10/04 11:19:08;;;;;;;9.83;6.30;;;;;;;20.14;28.97;100599.92;1710343;82;20991;-80
2021/10/04 11:21:43;;;;;;;16.82;8.20;;;;;;;20.17;28.67;100598.62;1665387;84;21041;-78
2021/10/04 11:24:09;;;;;;;20.02;7.10;;;;;;;20.34;28.01;100599.69;1719691;82;21142;-76
2021/10/04 11:26:38;;;;;;;8.58;5.05;;;;;;;20.30;28.21;100593.78;1693638;83;21104;-78
2021/10/04 11:29:06;;;;;;;6.80;4.28;;;;;;;20.28;29.00;100587.75;1697727;83;21166;-78